createdAt,value
2024-04-24T00:02:33.235Z,100709.03
2024-04-24T00:05:38.089Z,100708.28
2024-04-24T00:08:42.823Z,100703.44
2024-04-24T00:11:47.454Z,100698.44
2024-04-24T00:14:55.035Z,100706.63
2024-04-24T00:17:59.653Z,100690.75
2024-04-24T00:21:04.403Z,100689.34
2024-04-24T00:24:09.283Z,100686.94
2024-04-24T00:27:14.311Z,100682.19
2024-04-24T00:30:21.875Z,100676.75
2024-04-24T00:33:26.530Z,100681.75
2024-04-24T00:36:31.664Z,100675.09
2024-04-24T00:39:36.341Z,100670.81
2024-04-24T00:42:40.887Z,100666.44
2024-04-24T00:45:48.358Z,100661.31
2024-04-24T00:48:54.134Z,100659.16
2024-04-24T00:51:58.907Z,100654.78
2024-04-24T00:55:03.445Z,100644.94
2024-04-24T00:58:08.851Z,100647.66
2024-04-24T01:01:18.415Z,100639.13
2024-04-24T01:04:23.253Z,100628.47
2024-04-24T01:07:28.222Z,100621.81
2024-04-24T01:10:33.216Z,100622.28
2024-04-24T01:13:38.153Z,100618.88
2024-04-24T01:16:48.419Z,100616.81
2024-04-24T01:19:56.157Z,100605.69
2024-04-24T01:23:32.117Z,100597.97
2024-04-24T01:26:47.880Z,100596.44
2024-04-24T01:29:53.189Z,100594.31
2024-04-24T01:32:58.192Z,100593.00
2024-04-24T01:36:03.167Z,100602.59
2024-04-24T01:39:08.193Z,100592.03
2024-04-24T01:42:15.660Z,100591.44
2024-04-24T01:45:20.739Z,100586.72
2024-04-24T01:48:25.519Z,100581.97
2024-04-24T01:51:30.228Z,100579.59
2024-04-24T01:54:34.900Z,100566.41
2024-04-24T01:57:42.264Z,100570.47
2024-04-24T02:00:46.884Z,100562.03
2024-04-24T02:03:51.995Z,100560.97
2024-04-24T02:06:56.590Z,100553.25
2024-04-24T02:10:01.445Z,100556.81
2024-04-24T02:13:08.648Z,100550.44
2024-04-24T02:16:13.347Z,100552.56
2024-04-24T02:19:17.860Z,100549.38
2024-04-24T02:22:22.773Z,100543.19
2024-04-24T02:25:39.147Z,100545.81
2024-04-24T02:28:46.320Z,100541.66
2024-04-24T02:31:51.019Z,100534.91
2024-04-24T02:34:55.734Z,100534.06
2024-04-24T02:38:00.509Z,100526.13
2024-04-24T02:41:05.063Z,100527.66
2024-04-24T02:44:12.461Z,100526.25
2024-04-24T02:47:17.536Z,100525.75
2024-04-24T02:50:22.263Z,100518.63
2024-04-24T02:53:27.087Z,100516.97
2024-04-24T02:56:31.784Z,100509.63
2024-04-24T02:59:39.195Z,100510.09
2024-04-24T03:02:43.800Z,100515.56
2024-04-24T03:05:48.604Z,100510.34
2024-04-24T03:08:55.406Z,100506.31
2024-04-24T03:12:00.245Z,100505.00
2024-04-24T03:15:08.655Z,100505.63
2024-04-24T03:18:13.311Z,100505.50
2024-04-24T03:21:23.353Z,100503.00
2024-04-24T03:24:28.215Z,100502.91
2024-04-24T03:27:32.901Z,100500.38
2024-04-24T03:30:40.101Z,100494.91
2024-04-24T03:33:44.855Z,100498.03
2024-04-24T03:36:50.154Z,100490.34
2024-04-24T03:39:54.839Z,100491.50
2024-04-24T03:42:59.587Z,100493.50
2024-04-24T03:46:07.135Z,100487.81
2024-04-24T03:49:11.836Z,100484.41
2024-04-24T03:52:16.520Z,100480.59
2024-04-24T03:55:21.493Z,100475.56
2024-04-24T03:58:26.086Z,100475.16
2024-04-24T04:01:34.539Z,100477.88
2024-04-24T04:04:39.088Z,100479.28
2024-04-24T04:07:44.007Z,100466.75
2024-04-24T04:10:49.242Z,100465.56
2024-04-24T04:13:55.162Z,100463.44
2024-04-24T04:17:02.693Z,100457.03
2024-04-24T04:20:08.325Z,100458.56
2024-04-24T04:23:13.740Z,100457.97
2024-04-24T04:26:18.514Z,100460.69
2024-04-24T04:29:23.174Z,100452.19
2024-04-24T04:32:30.671Z,100448.72
2024-04-24T04:35:35.267Z,100443.03
2024-04-24T04:38:39.915Z,100439.47
2024-04-24T04:41:44.401Z,100450.13
2024-04-24T04:44:49.121Z,100439.47
2024-04-24T04:47:56.398Z,100440.19
2024-04-24T04:51:03.974Z,100443.03
2024-04-24T04:54:08.757Z,100438.88
2024-04-24T04:57:13.397Z,100436.00
2024-04-24T05:00:18.350Z,100444.91
2024-04-24T05:03:25.778Z,100434.44
2024-04-24T05:06:30.723Z,100432.28
2024-04-24T05:09:36.659Z,100435.97
2024-04-24T05:12:41.478Z,100437.63
2024-04-24T05:15:46.000Z,100424.47
2024-04-24T05:18:54.457Z,100418.75
2024-04-24T05:21:59.195Z,100416.53
2024-04-24T05:25:03.756Z,100408.41
2024-04-24T05:28:26.198Z,100408.19
2024-04-24T05:31:30.808Z,100403.78
2024-04-24T05:34:38.389Z,100405.94
2024-04-24T05:37:43.057Z,100403.91
2024-04-24T05:40:47.757Z,100388.22
2024-04-24T05:43:52.314Z,100392.94
2024-04-24T05:46:58.523Z,100391.22
2024-04-24T05:50:06.138Z,100388.69
2024-04-24T05:53:11.034Z,100391.34
2024-04-24T05:56:15.802Z,100382.09
2024-04-24T05:59:20.962Z,100394.00
2024-04-24T06:02:25.645Z,100374.41
2024-04-24T06:05:32.982Z,100383.50
2024-04-24T06:08:37.660Z,100374.72
2024-04-24T06:11:42.619Z,100373.56
2024-04-24T06:14:47.440Z,100367.41
2024-04-24T06:17:54.886Z,100372.94
2024-04-24T06:21:04.125Z,100367.69
2024-04-24T06:24:12.521Z,100360.84
2024-04-24T06:27:17.697Z,100356.78
2024-04-24T06:30:22.398Z,100359.00
2024-04-24T06:33:27.167Z,100357.34
2024-04-24T06:36:34.522Z,100357.50
2024-04-24T06:39:39.455Z,100350.03
2024-04-24T06:42:44.004Z,100347.75
2024-04-24T06:45:49.051Z,100349.69
2024-04-24T06:48:53.826Z,100340.81
2024-04-24T06:52:01.029Z,100348.75
2024-04-24T06:55:05.748Z,100349.66
2024-04-24T06:58:10.238Z,100345.84
2024-04-24T07:01:15.114Z,100345.66
2024-04-24T07:04:19.866Z,100340.72
2024-04-24T07:07:27.365Z,100342.47
2024-04-24T07:10:32.068Z,100343.19
2024-04-24T07:13:36.814Z,100331.63
2024-04-24T07:16:42.615Z,100330.38
2024-04-24T07:19:48.105Z,100333.47
2024-04-24T07:22:55.952Z,100329.34
2024-04-24T07:26:01.052Z,100324.16
2024-04-24T07:29:06.171Z,100319.22
2024-04-24T07:32:11.137Z,100317.16
2024-04-24T07:35:16.574Z,100317.28
2024-04-24T07:38:24.288Z,100310.25
2024-04-24T07:41:28.996Z,100310.19
2024-04-24T07:44:33.728Z,100300.41
2024-04-24T07:47:42.823Z,100305.63
2024-04-24T07:50:48.511Z,100304.84
2024-04-24T07:53:55.907Z,100304.09
2024-04-24T07:57:00.751Z,100296.91
2024-04-24T08:00:05.668Z,100303.25
2024-04-24T08:03:10.641Z,100301.66
2024-04-24T08:06:15.198Z,100309.91
2024-04-24T08:09:22.707Z,100318.19
2024-04-24T08:12:27.549Z,100307.41
2024-04-24T08:15:34.413Z,100300.03
2024-04-24T08:18:39.797Z,100305.00
2024-04-24T08:21:44.535Z,100315.22
2024-04-24T08:24:52.098Z,100298.19
2024-04-24T08:27:56.634Z,100305.84
2024-04-24T08:31:09.943Z,100303.22
2024-04-24T08:34:16.329Z,100312.03
2024-04-24T08:37:20.996Z,100307.38
2024-04-24T08:40:28.474Z,100302.41
2024-04-24T08:43:33.248Z,100307.91
2024-04-24T08:46:38.043Z,100309.00
2024-04-24T08:49:45.738Z,100311.22
2024-04-24T08:52:56.563Z,100301.84
2024-04-24T08:56:07.971Z,100305.97
2024-04-24T08:59:19.325Z,100312.56
2024-04-24T09:02:28.673Z,100303.78
2024-04-24T09:05:37.209Z,100301.88
2024-04-24T09:08:43.838Z,100308.19
2024-04-24T09:11:52.289Z,100312.56
2024-04-24T09:14:57.115Z,100309.22
2024-04-24T09:18:01.996Z,100301.25
2024-04-24T09:21:08.168Z,100316.94
2024-04-24T09:24:14.398Z,100315.84
2024-04-24T09:27:23.478Z,100305.13
2024-04-24T09:30:31.432Z,100309.81
2024-04-24T09:33:36.267Z,100307.63
2024-04-24T09:36:43.367Z,100304.34
2024-04-24T09:39:48.398Z,100309.56
2024-04-24T09:42:56.057Z,100305.72
2024-04-24T09:46:01.236Z,100311.22
2024-04-24T09:49:07.636Z,100306.81
2024-04-24T09:52:17.878Z,100303.53
2024-04-24T09:55:29.300Z,100310.09
2024-04-24T09:58:39.029Z,100302.97
2024-04-24T10:01:48.196Z,100294.16
2024-04-24T10:04:59.068Z,100299.34
2024-04-24T10:08:08.936Z,100290.81
2024-04-24T10:11:17.330Z,100290.31
2024-04-24T10:14:27.052Z,100283.63
2024-04-24T10:17:33.539Z,100274.25
2024-04-24T10:20:40.727Z,100280.22
2024-04-24T10:23:45.697Z,100280.94
2024-04-24T10:26:52.947Z,100278.06
2024-04-24T10:30:00.480Z,100273.19
2024-04-24T10:33:08.001Z,100267.31
2024-04-24T10:36:12.928Z,100276.19
2024-04-24T10:39:17.993Z,100256.63
2024-04-24T10:42:22.800Z,100260.56
2024-04-24T10:45:30.824Z,100263.66
2024-04-24T10:49:00.922Z,100262.88
2024-04-24T10:52:06.294Z,100260.09
2024-04-24T10:55:12.789Z,100251.38
2024-04-24T10:58:24.579Z,100260.41
2024-04-24T11:01:42.489Z,100249.53
2024-04-24T11:04:55.509Z,100255.59
2024-04-24T11:08:02.109Z,100248.94
2024-04-24T11:11:08.780Z,100237.00
2024-04-24T11:14:15.295Z,100235.59
2024-04-24T11:17:27.598Z,100236.41
2024-04-24T11:20:37.769Z,100230.09
2024-04-24T11:23:49.313Z,100229.00
2024-04-24T11:26:53.955Z,100229.00
2024-04-24T11:29:58.921Z,100223.25
2024-04-24T11:33:06.665Z,100218.06
2024-04-24T11:36:11.441Z,100219.03
2024-04-24T11:39:20.084Z,100218.22
2024-04-24T11:42:26.075Z,100214.81
2024-04-24T11:45:30.838Z,100212.88
2024-04-24T11:48:46.749Z,100206.53
2024-04-24T11:51:55.088Z,100203.16
2024-04-24T11:54:59.580Z,100202.53
2024-04-24T11:58:11.813Z,100193.47
2024-04-24T12:01:19.123Z,100198.47
2024-04-24T12:04:27.458Z,100196.75
2024-04-24T12:07:33.092Z,100198.72
2024-04-24T12:10:38.185Z,100191.50
2024-04-24T12:13:44.125Z,100189.03
2024-04-24T12:16:49.330Z,100189.28
2024-04-24T12:19:56.949Z,100194.50
2024-04-24T12:23:03.145Z,100193.22
2024-04-24T12:26:08.787Z,100190.84
2024-04-24T12:29:15.632Z,100199.22
2024-04-24T12:32:21.507Z,100188.88
2024-04-24T12:35:29.281Z,100187.47
2024-04-24T12:38:34.014Z,100191.25
2024-04-24T12:41:38.836Z,100191.47
2024-04-24T12:44:45.064Z,100193.97
2024-04-24T12:47:50.009Z,100180.94
2024-04-24T12:50:57.915Z,100184.09
2024-04-24T12:54:03.099Z,100180.91
2024-04-24T12:57:09.859Z,100178.38
2024-04-24T13:00:18.378Z,100181.44
2024-04-24T13:03:26.523Z,100170.16
2024-04-24T13:06:34.751Z,100167.72
2024-04-24T13:09:39.469Z,100166.50
2024-04-24T13:12:46.548Z,100167.31
2024-04-24T13:15:51.721Z,100161.19
2024-04-24T13:18:56.851Z,100168.13
2024-04-24T13:22:05.246Z,100160.53
2024-04-24T13:25:10.453Z,100168.41
2024-04-24T13:28:14.981Z,100154.25
2024-04-24T13:31:19.749Z,100155.91
2024-04-24T13:34:24.674Z,100146.91
2024-04-24T13:37:31.831Z,100144.84
2024-04-24T13:40:36.545Z,100136.13
2024-04-24T13:43:41.483Z,100136.56
2024-04-24T13:46:46.156Z,100133.28
2024-04-24T13:49:51.110Z,100126.72
2024-04-24T13:52:58.557Z,100119.06
2024-04-24T13:56:03.950Z,100116.75
2024-04-24T13:59:08.538Z,100117.59
2024-04-24T14:02:13.345Z,100114.06
2024-04-24T14:05:18.125Z,100112.84
2024-04-24T14:08:27.819Z,100124.09
2024-04-24T14:11:34.608Z,100126.25
2024-04-24T14:14:39.771Z,100116.00
2024-04-24T14:17:44.866Z,100117.66
2024-04-24T14:20:49.937Z,100118.31
2024-04-24T14:23:59.142Z,100115.47
2024-04-24T14:27:03.731Z,100115.31
2024-04-24T14:30:09.689Z,100108.72
2024-04-24T14:33:14.325Z,100094.59
2024-04-24T14:36:20.456Z,100107.97
2024-04-24T14:39:30.141Z,100101.31
2024-04-24T14:42:34.884Z,100101.63
2024-04-24T14:45:39.597Z,100096.78
2024-04-24T14:48:44.491Z,100098.13
2024-04-24T14:51:49.961Z,100093.50
2024-04-24T14:54:57.469Z,100092.72
2024-04-24T14:58:02.252Z,100086.47
2024-04-24T15:01:08.184Z,100092.78
2024-04-24T15:04:14.544Z,100087.28
2024-04-24T15:07:19.473Z,100084.06
2024-04-24T15:10:27.394Z,100084.66
2024-04-24T15:13:31.956Z,100078.06
2024-04-24T15:16:36.668Z,100075.91
2024-04-24T15:19:42.424Z,100078.13
2024-04-24T15:22:48.002Z,100082.63
2024-04-24T15:25:55.898Z,100079.88
2024-04-24T15:29:00.763Z,100083.78
2024-04-24T15:32:05.804Z,100086.22
2024-04-24T15:35:10.925Z,100089.84
2024-04-24T15:38:17.078Z,100074.44
2024-04-24T15:41:24.350Z,100088.19
2024-04-24T15:44:29.090Z,100088.22
2024-04-24T15:47:34.125Z,100087.94
2024-04-24T15:50:39.387Z,100089.56
2024-04-24T15:53:44.200Z,100094.78
2024-04-24T15:56:51.652Z,100113.66
2024-04-24T15:59:56.889Z,100116.66
2024-04-24T16:03:01.751Z,100118.25
2024-04-24T16:06:06.933Z,100129.72
2024-04-24T16:09:11.583Z,100135.59
2024-04-24T16:12:19.047Z,100136.50
2024-04-24T16:15:23.603Z,100127.78
2024-04-24T16:18:36.238Z,100125.41
2024-04-24T16:21:47.418Z,100129.00
2024-04-24T16:24:52.279Z,100115.09
2024-04-24T16:27:59.703Z,100106.09
2024-04-24T16:31:04.237Z,100106.94
2024-04-24T16:34:09.189Z,100107.53
2024-04-24T16:37:13.880Z,100100.94
2024-04-24T16:40:18.564Z,100105.59
2024-04-24T16:43:25.894Z,100105.81
2024-04-24T16:46:30.580Z,100107.81
2024-04-24T16:49:36.860Z,100104.22
2024-04-24T16:52:41.557Z,100106.34
2024-04-24T16:55:48.451Z,100103.13
2024-04-24T16:58:57.155Z,100098.50
2024-04-24T17:02:02.289Z,100098.53
2024-04-24T17:05:11.130Z,100107.63
2024-04-24T17:08:16.463Z,100102.16
2024-04-24T17:11:21.351Z,100087.06
2024-04-24T17:14:30.825Z,100093.06
2024-04-24T17:17:36.483Z,100099.31
2024-04-24T17:20:42.063Z,100096.00
2024-04-24T17:23:47.249Z,100097.56
2024-04-24T17:26:52.990Z,100099.22
2024-04-24T17:30:00.348Z,100094.03
2024-04-24T17:33:04.990Z,100098.59
2024-04-24T17:36:12.580Z,100108.16
2024-04-24T17:39:17.555Z,100102.06
2024-04-24T17:42:22.114Z,100114.25
2024-04-24T17:45:30.377Z,100105.75
2024-04-24T17:48:35.266Z,100105.03
2024-04-24T17:51:40.361Z,100101.75
2024-04-24T17:54:44.972Z,100108.84
2024-04-24T17:57:49.628Z,100105.81
2024-04-24T18:00:57.087Z,100104.38
2024-04-24T18:04:01.807Z,100108.00
2024-04-24T18:07:06.400Z,100102.47
2024-04-24T18:10:11.396Z,100103.00
2024-04-24T18:13:16.824Z,100100.78
2024-04-24T18:16:23.948Z,100106.81
2024-04-24T18:19:28.860Z,100103.78
2024-04-24T18:22:33.433Z,100107.28
2024-04-24T18:25:38.604Z,100111.44
2024-04-24T18:28:43.256Z,100115.19
2024-04-24T18:31:50.872Z,100120.78
2024-04-24T18:34:55.497Z,100128.31
2024-04-24T18:38:00.604Z,100122.28
2024-04-24T18:41:05.312Z,100129.09
2024-04-24T18:44:10.496Z,100129.91
2024-04-24T18:47:19.624Z,100130.06
2024-04-24T18:50:25.930Z,100128.91
2024-04-24T18:53:30.609Z,100133.13
2024-04-24T18:56:35.498Z,100131.66
2024-04-24T18:59:40.731Z,100137.25
2024-04-24T19:02:49.734Z,100132.53
2024-04-24T19:05:54.936Z,100132.53
2024-04-24T19:09:00.162Z,100131.09
2024-04-24T19:12:06.148Z,100127.75
2024-04-24T19:15:11.935Z,100129.69
2024-04-24T19:18:19.285Z,100127.53
2024-04-24T19:21:23.931Z,100119.59
2024-04-24T19:24:28.501Z,100125.63
2024-04-24T19:27:40.564Z,100128.63
2024-04-24T19:30:46.457Z,100127.53
2024-04-24T19:33:53.942Z,100128.63
2024-04-24T19:36:58.965Z,100126.41
2024-04-24T19:40:04.662Z,100119.88
2024-04-24T19:43:09.516Z,100122.59
2024-04-24T19:46:14.075Z,100128.25
2024-04-24T19:49:21.974Z,100115.91
2024-04-24T19:52:26.574Z,100128.63
2024-04-24T19:55:36.113Z,100125.81
2024-04-24T19:58:41.143Z,100127.19
2024-04-24T20:01:49.371Z,100131.34
2024-04-24T20:04:56.812Z,100131.41
2024-04-24T20:08:01.784Z,100127.78
2024-04-24T20:11:08.462Z,100129.88
2024-04-24T20:14:14.339Z,100130.44
2024-04-24T20:17:20.557Z,100129.34
2024-04-24T20:20:30.602Z,100134.00
2024-04-24T20:23:36.141Z,100129.34
2024-04-24T20:26:41.511Z,100122.19
2024-04-24T20:29:46.373Z,100119.94
2024-04-24T20:32:51.984Z,100123.03
2024-04-24T20:36:01.827Z,100131.84
2024-04-24T20:39:10.354Z,100126.94
2024-04-24T20:42:15.599Z,100130.19
2024-04-24T20:45:21.076Z,100128.84
2024-04-24T20:48:26.580Z,100123.59
2024-04-24T20:51:34.259Z,100122.94
2024-04-24T20:54:41.178Z,100127.81
2024-04-24T20:57:46.230Z,100118.50
2024-04-24T21:00:51.921Z,100117.97
2024-04-24T21:03:57.409Z,100110.09
2024-04-24T21:07:17.502Z,100111.53
2024-04-24T21:10:22.864Z,100113.44
2024-04-24T21:13:28.558Z,100110.44
2024-04-24T21:16:33.587Z,100111.19
2024-04-24T21:19:38.374Z,100106.50
2024-04-24T21:22:48.137Z,100094.44
2024-04-24T21:25:53.104Z,100099.75
2024-04-24T21:28:57.833Z,100103.97
2024-04-24T21:32:02.775Z,100105.63
2024-04-24T21:35:07.934Z,100107.78
2024-04-24T21:38:15.461Z,100111.25
2024-04-24T21:41:21.987Z,100107.34
2024-04-24T21:44:27.363Z,100105.63
2024-04-24T21:47:32.241Z,100106.63
2024-04-24T21:50:37.360Z,100107.81
2024-04-24T21:53:45.365Z,100104.66
2024-04-24T21:56:50.301Z,100102.31
2024-04-24T21:59:55.103Z,100100.59
2024-04-24T22:03:00.150Z,100098.91
2024-04-24T22:06:05.187Z,100089.06
2024-04-24T22:09:12.526Z,100096.78
2024-04-24T22:12:17.494Z,100095.50
2024-04-24T22:15:22.818Z,100094.69
2024-04-24T22:18:29.352Z,100081.31
2024-04-24T22:21:53.970Z,100081.44
2024-04-24T22:25:01.948Z,100087.91
2024-04-24T22:28:07.462Z,100091.56
2024-04-24T22:31:14.472Z,100089.44
2024-04-24T22:34:19.882Z,100089.22
2024-04-24T22:37:24.879Z,100081.19
2024-04-24T22:40:33.766Z,100078.91
2024-04-24T22:43:39.706Z,100075.69
2024-04-24T22:46:44.713Z,100078.41
2024-04-24T22:49:49.818Z,100075.69
2024-04-24T22:52:54.855Z,100076.50
2024-04-24T22:56:02.554Z,100075.69
2024-04-24T22:59:07.710Z,100081.13
2024-04-24T23:02:13.076Z,100069.41
2024-04-24T23:05:18.069Z,100065.84
2024-04-24T23:08:24.955Z,100062.81
2024-04-24T23:11:33.424Z,100062.31
2024-04-24T23:14:38.602Z,100057.69
2024-04-24T23:17:45.324Z,100054.13
2024-04-24T23:20:50.575Z,100050.59
2024-04-24T23:23:55.504Z,100053.44
2024-04-24T23:27:02.714Z,100045.84
2024-04-24T23:30:08.468Z,100048.00
2024-04-24T23:33:13.074Z,100042.47
2024-04-24T23:36:17.805Z,100045.69
2024-04-24T23:39:22.530Z,100046.41
2024-04-24T23:42:29.908Z,100043.34
2024-04-24T23:45:35.514Z,100041.84
2024-04-24T23:48:40.350Z,100028.63
2024-04-24T23:55:07.589Z,100024.88
2024-04-24T23:58:15.656Z,100019.47
